Time;durP1;ratioP1;P1;durP2;ratioP2;P2;SDS_P1;SDS_P2;PMS_P1;PMS_P2;Temp;Humidity;BMP_temperature;BMP_pressure;BME280_temperature;BME280_humidity;BME280_pressure;Samples;Min_cycle;Max_cycle;Signal;HPM_P1;HPM_P2
2024/02/05 00:03:17;;;;;;;0.73;0.73;;;8.90;99.90;;;;;;10418060;28;20253;-80
2024/02/05 00:08:20;;;;;;;0.40;0.40;;;8.90;99.90;;;;;;10425971;28;20295;-80
2024/02/05 00:13:24;;;;;;;0.60;0.60;;;8.90;99.90;;;;;;10426272;28;20198;-80
2024/02/05 00:18:27;;;;;;;0.33;0.33;;;8.90;99.90;;;;;;10423233;28;20220;-79
2024/02/05 00:23:29;;;;;;;0.70;0.70;;;8.90;99.90;;;;;;10402940;28;20232;-82
2024/02/05 00:28:33;;;;;;;0.50;0.50;;;8.90;99.90;;;;;;10415325;28;20644;-79
2024/02/05 00:33:35;;;;;;;0.50;0.50;;;8.90;99.90;;;;;;10418368;28;20202;-80
2024/02/05 00:38:38;;;;;;;0.50;0.50;;;9.00;99.90;;;;;;10425776;28;20640;-81
2024/02/05 00:43:42;;;;;;;0.60;0.60;;;9.10;99.90;;;;;;10431526;28;20224;-83
2024/02/05 00:48:44;;;;;;;0.50;0.50;;;9.30;99.90;;;;;;10428113;28;20215;-80
2024/02/05 00:53:47;;;;;;;0.50;0.50;;;9.30;99.90;;;;;;10403684;28;20700;-80
2024/02/05 00:58:51;;;;;;;0.50;0.50;;;9.40;99.90;;;;;;10414665;28;20726;-80
2024/02/05 01:03:54;;;;;;;0.50;0.50;;;9.50;99.90;;;;;;10407050;28;20214;-81
2024/02/05 01:08:56;;;;;;;0.50;0.50;;;9.60;99.90;;;;;;10435831;28;20225;-82
2024/02/05 01:14:00;;;;;;;0.50;0.50;;;9.70;99.90;;;;;;10445738;28;20209;-80
2024/02/05 01:19:03;;;;;;;0.50;0.50;;;9.70;99.90;;;;;;10417416;28;20689;-81
2024/02/05 01:24:06;;;;;;;0.40;0.40;;;9.90;99.90;;;;;;10421330;28;20222;-82
2024/02/05 01:29:10;;;;;;;0.50;0.50;;;9.90;99.90;;;;;;10443828;28;20221;-83
2024/02/05 01:34:12;;;;;;;0.50;0.50;;;10.00;99.90;;;;;;10434636;28;20198;-82
2024/02/05 01:39:15;;;;;;;0.50;0.50;;;10.10;99.90;;;;;;10416141;28;20245;-82
2024/02/05 01:44:19;;;;;;;0.40;0.40;;;10.10;99.90;;;;;;10430184;28;20221;-85
2024/02/05 01:49:24;;;;;;;0.53;0.53;;;10.10;99.90;;;;;;10429566;28;20230;-82
2024/02/05 01:54:28;;;;;;;0.40;0.40;;;10.10;99.90;;;;;;10425857;28;20195;-83
2024/02/05 01:59:33;;;;;;;0.40;0.40;;;10.10;99.90;;;;;;10430876;28;20291;-83
2024/02/05 02:04:39;;;;;;;0.40;0.40;;;10.10;99.90;;;;;;10432742;28;20228;-82
2024/02/05 02:09:42;;;;;;;0.50;0.50;;;10.20;99.90;;;;;;10439689;28;20229;-80
2024/02/05 02:14:45;;;;;;;0.40;0.40;;;10.20;99.90;;;;;;10427103;28;20198;-84
2024/02/05 02:19:51;;;;;;;0.40;0.40;;;10.30;99.90;;;;;;10440118;28;20210;-83
2024/02/05 02:24:55;;;;;;;0.40;0.40;;;10.20;99.90;;;;;;10425177;28;20233;-81
2024/02/05 02:29:58;;;;;;;0.40;0.40;;;10.20;99.90;;;;;;10424474;28;20222;-83
2024/02/05 02:35:05;;;;;;;0.40;0.40;;;10.20;99.90;;;;;;10409881;28;20833;-81
2024/02/05 02:40:14;;;;;;;0.40;0.40;;;10.20;99.90;;;;;;10427917;28;20284;-82
2024/02/05 02:45:17;;;;;;;0.40;0.40;;;10.20;99.90;;;;;;10414128;28;20225;-83
2024/02/05 02:50:20;;;;;;;0.30;0.30;;;10.20;99.90;;;;;;10425302;28;20225;-82
2024/02/05 02:55:24;;;;;;;0.30;0.30;;;10.20;99.90;;;;;;10425875;28;20190;-84
2024/02/05 03:00:27;;;;;;;0.40;0.40;;;10.10;99.90;;;;;;10422416;28;20708;-79
2024/02/05 03:05:29;;;;;;;0.40;0.40;;;10.10;99.90;;;;;;10410579;28;20233;-81
2024/02/05 03:10:33;;;;;;;0.30;0.30;;;10.10;99.90;;;;;;10429287;28;20676;-79
2024/02/05 03:15:36;;;;;;;0.40;0.40;;;10.00;99.90;;;;;;10422294;28;20260;-80
2024/02/05 03:20:40;;;;;;;0.40;0.40;;;10.10;99.90;;;;;;10427206;28;20201;-83
2024/02/05 03:25:44;;;;;;;0.43;0.43;;;10.10;99.90;;;;;;10431860;28;20217;-80
2024/02/05 03:30:46;;;;;;;0.40;0.40;;;10.10;99.90;;;;;;10426865;28;20198;-80
2024/02/05 03:35:49;;;;;;;0.40;0.40;;;10.10;99.90;;;;;;10397233;28;20214;-81
2024/02/05 03:40:53;;;;;;;0.40;0.40;;;10.10;99.90;;;;;;10441409;28;20757;-79
2024/02/05 03:45:55;;;;;;;0.50;0.50;;;10.10;99.90;;;;;;10422005;28;20233;-84
2024/02/05 03:50:58;;;;;;;0.30;0.30;;;10.10;99.90;;;;;;10433860;28;20210;-81
2024/02/05 03:56:02;;;;;;;0.40;0.40;;;10.10;99.90;;;;;;10430860;28;20236;-81
2024/02/05 04:01:04;;;;;;;0.40;0.40;;;10.20;99.90;;;;;;10418886;28;20205;-81
2024/02/05 04:06:08;;;;;;;0.50;0.50;;;10.10;99.90;;;;;;10429422;28;20230;-83
2024/02/05 04:11:12;;;;;;;0.70;0.70;;;10.10;99.90;;;;;;10430515;28;20198;-80
2024/02/05 04:16:14;;;;;;;0.83;0.83;;;10.10;99.90;;;;;;10436350;28;20225;-84
2024/02/05 04:21:17;;;;;;;0.90;0.90;;;10.10;99.90;;;;;;10428266;28;20252;-83
2024/02/05 04:26:22;;;;;;;0.70;0.70;;;10.10;99.90;;;;;;10442312;28;20308;-79
2024/02/05 04:31:24;;;;;;;0.77;0.77;;;10.10;99.90;;;;;;10438448;28;20186;-83
2024/02/05 04:36:27;;;;;;;0.80;0.80;;;10.10;99.90;;;;;;10421926;28;20231;-80
2024/02/05 04:41:31;;;;;;;0.80;0.80;;;10.20;99.90;;;;;;10437941;28;20210;-84
2024/02/05 04:46:33;;;;;;;0.77;0.77;;;10.20;99.90;;;;;;10440135;28;20792;-81
2024/02/05 04:51:35;;;;;;;0.77;0.77;;;10.20;99.90;;;;;;10430290;28;20284;-82
2024/02/05 04:56:39;;;;;;;0.80;0.80;;;10.20;99.90;;;;;;10462050;22;20225;-78
2024/02/05 05:01:41;;;;;;;0.80;0.80;;;10.30;99.90;;;;;;10475586;28;20708;-79
2024/02/05 05:06:44;;;;;;;0.77;0.77;;;10.30;99.90;;;;;;10475310;28;20280;-79
2024/02/05 05:11:48;;;;;;;0.70;0.70;;;10.20;99.90;;;;;;10444279;28;20258;-81
2024/02/05 05:16:50;;;;;;;0.70;0.70;;;10.20;99.90;;;;;;10426839;28;20283;-79
2024/02/05 05:21:52;;;;;;;0.70;0.70;;;10.20;99.90;;;;;;10425076;28;20201;-80
2024/02/05 05:26:56;;;;;;;0.50;0.50;;;10.10;99.90;;;;;;10440305;28;20228;-80
2024/02/05 05:31:58;;;;;;;0.60;0.60;;;10.10;99.90;;;;;;10433808;28;20210;-79
2024/02/05 05:37:01;;;;;;;0.70;0.70;;;10.00;99.90;;;;;;10453445;28;20239;-79
2024/02/05 05:42:05;;;;;;;0.60;0.60;;;10.00;99.90;;;;;;10436942;28;20197;-79
2024/02/05 05:47:07;;;;;;;0.50;0.50;;;10.00;99.90;;;;;;10413155;28;20279;-79
2024/02/05 05:52:10;;;;;;;0.60;0.60;;;10.00;99.90;;;;;;10442746;28;20756;-78
2024/02/05 05:57:14;;;;;;;0.60;0.60;;;9.90;99.90;;;;;;10438650;28;20671;-80
2024/02/05 06:02:17;;;;;;;0.50;0.50;;;9.90;99.90;;;;;;10424489;28;20191;-80
2024/02/05 06:07:19;;;;;;;0.50;0.50;;;9.80;99.90;;;;;;10422883;28;20699;-80
2024/02/05 06:12:23;;;;;;;0.30;0.30;;;9.80;99.90;;;;;;10412735;28;20272;-81
2024/02/05 06:17:25;;;;;;;0.50;0.50;;;9.80;99.90;;;;;;10430884;28;20216;-80
2024/02/05 06:22:27;;;;;;;0.50;0.50;;;9.80;99.90;;;;;;10422620;28;20630;-81
2024/02/05 06:27:31;;;;;;;0.63;0.63;;;9.80;99.90;;;;;;10437583;28;20240;-80
2024/02/05 06:32:33;;;;;;;0.40;0.40;;;9.80;99.90;;;;;;10439622;28;20682;-81
2024/02/05 06:37:36;;;;;;;0.50;0.50;;;9.80;99.90;;;;;;10443031;28;20217;-81
2024/02/05 06:42:39;;;;;;;0.50;0.50;;;9.80;99.90;;;;;;10453306;28;20627;-79
2024/02/05 06:47:42;;;;;;;0.17;0.17;;;9.80;99.90;;;;;;10437157;28;20260;-79
2024/02/05 06:52:45;;;;;;;0.40;0.40;;;9.80;99.90;;;;;;10443378;28;20746;-79
2024/02/05 06:57:49;;;;;;;0.47;0.47;;;9.80;99.90;;;;;;10448358;28;20225;-80
2024/02/05 07:02:51;;;;;;;0.30;0.30;;;9.70;99.90;;;;;;10437481;28;20206;-80
2024/02/05 07:07:54;;;;;;;0.40;0.40;;;9.70;99.90;;;;;;10437801;28;20218;-79
2024/02/05 07:12:58;;;;;;;0.50;0.50;;;9.70;99.90;;;;;;10427325;28;20198;-80
2024/02/05 07:18:00;;;;;;;0.40;0.40;;;9.60;99.90;;;;;;10438871;28;20217;-80
2024/02/05 07:23:02;;;;;;;0.50;0.50;;;9.60;99.90;;;;;;10419376;28;20194;-79
2024/02/05 07:28:06;;;;;;;0.40;0.40;;;9.60;99.90;;;;;;10432720;28;20272;-79
2024/02/05 07:33:09;;;;;;;0.40;0.40;;;9.60;99.90;;;;;;10426111;28;20602;-79
2024/02/05 07:38:11;;;;;;;0.40;0.40;;;9.60;99.90;;;;;;10428570;28;20209;-79
2024/02/05 07:43:15;;;;;;;0.30;0.30;;;9.60;99.90;;;;;;10441680;28;20255;-79
2024/02/05 07:48:19;;;;;;;0.40;0.40;;;9.60;99.90;;;;;;10438424;28;20650;-80
2024/02/05 07:53:22;;;;;;;0.30;0.30;;;9.60;99.90;;;;;;10433772;28;20303;-81
2024/02/05 07:58:26;;;;;;;0.40;0.40;;;9.70;99.90;;;;;;10445630;28;20233;-79
2024/02/05 08:03:28;;;;;;;0.30;0.30;;;9.80;99.90;;;;;;10441617;28;20201;-79
2024/02/05 08:08:31;;;;;;;0.40;0.40;;;9.70;99.90;;;;;;10438533;28;20217;-80
2024/02/05 08:13:35;;;;;;;0.40;0.40;;;9.70;99.90;;;;;;10441413;28;20672;-81
2024/02/05 08:18:38;;;;;;;0.30;0.30;;;9.70;99.90;;;;;;10440712;28;20220;-79
2024/02/05 08:23:40;;;;;;;0.40;0.40;;;9.70;99.90;;;;;;10421058;28;20590;-82
2024/02/05 08:28:44;;;;;;;0.60;0.60;;;9.80;99.90;;;;;;10439713;28;20221;-81
2024/02/05 08:33:46;;;;;;;0.30;0.30;;;9.80;99.90;;;;;;10439178;28;20206;-79
2024/02/05 08:38:48;;;;;;;0.20;0.20;;;9.80;99.90;;;;;;10427449;28;20713;-80
2024/02/05 08:43:52;;;;;;;0.30;0.30;;;9.80;99.90;;;;;;10442040;28;20271;-79
2024/02/05 08:48:55;;;;;;;0.30;0.30;;;9.80;99.90;;;;;;10434085;28;20718;-81
2024/02/05 08:53:57;;;;;;;0.30;0.30;;;9.80;99.90;;;;;;10436475;28;20674;-81
2024/02/05 08:59:01;;;;;;;0.30;0.30;;;9.70;99.90;;;;;;10420878;28;20230;-79
2024/02/05 09:04:04;;;;;;;0.40;0.40;;;9.70;99.90;;;;;;10434220;28;20204;-78
2024/02/05 09:09:08;;;;;;;0.33;0.33;;;9.80;99.90;;;;;;10439082;28;20772;-79
2024/02/05 09:14:13;;;;;;;0.30;0.30;;;9.90;99.90;;;;;;10443065;28;20789;-79
2024/02/05 09:19:15;;;;;;;0.30;0.30;;;10.00;99.50;;;;;;10438618;28;20637;-80
2024/02/05 09:24:18;;;;;;;0.40;0.40;;;10.10;99.50;;;;;;10432741;28;20516;-81
2024/02/05 09:29:22;;;;;;;0.30;0.30;;;10.20;99.30;;;;;;10443932;28;20229;-79
2024/02/05 09:34:25;;;;;;;0.20;0.20;;;10.30;99.40;;;;;;10443862;28;20193;-80
2024/02/05 09:39:28;;;;;;;0.30;0.30;;;10.40;99.30;;;;;;10435121;28;20674;-80
2024/02/05 09:44:35;;;;;;;0.23;0.23;;;10.40;98.90;;;;;;10434614;28;20563;-81
2024/02/05 09:49:38;;;;;;;0.30;0.30;;;10.50;99.00;;;;;;10426178;28;20217;-79
2024/02/05 09:54:42;;;;;;;0.30;0.30;;;10.60;99.20;;;;;;10442505;28;20189;-78
2024/02/05 09:59:46;;;;;;;0.30;0.30;;;10.70;98.80;;;;;;10439502;28;20244;-79
2024/02/05 10:04:51;;;;;;;0.30;0.30;;;10.70;98.70;;;;;;10435567;28;20775;-77
2024/02/05 10:09:55;;;;;;;0.30;0.30;;;10.80;98.40;;;;;;10440041;28;20232;-79
2024/02/05 10:15:00;;;;;;;0.30;0.30;;;10.80;98.50;;;;;;10440911;28;20209;-80
2024/02/05 10:20:04;;;;;;;0.30;0.30;;;10.80;98.40;;;;;;10441800;28;20768;-80
2024/02/05 10:25:06;;;;;;;0.47;0.47;;;10.80;98.50;;;;;;10442458;28;20225;-79
2024/02/05 10:30:11;;;;;;;0.20;0.20;;;10.90;98.30;;;;;;10434581;28;20225;-79
2024/02/05 10:35:16;;;;;;;0.50;0.50;;;10.90;98.40;;;;;;10442864;28;20619;-79
2024/02/05 10:40:19;;;;;;;0.40;0.40;;;10.90;98.20;;;;;;10440857;28;20644;-79
2024/02/05 10:45:23;;;;;;;0.30;0.30;;;10.90;98.30;;;;;;10444837;28;20722;-79
2024/02/05 10:50:25;;;;;;;0.40;0.40;;;11.00;98.00;;;;;;10447183;28;20229;-82
2024/02/05 10:55:28;;;;;;;0.30;0.30;;;11.00;98.10;;;;;;10448869;28;20589;-81
2024/02/05 11:00:32;;;;;;;0.30;0.30;;;11.10;97.90;;;;;;10466485;22;20225;-81
2024/02/05 11:05:36;;;;;;;0.20;0.20;;;11.20;98.00;;;;;;10451618;28;20272;-80
2024/02/05 11:10:44;;;;;;;0.40;0.40;;;11.20;97.80;;;;;;10455724;28;20225;-81
2024/02/05 11:15:49;;;;;;;0.40;0.40;;;11.10;97.90;;;;;;10459345;28;20201;-81
2024/02/05 11:20:53;;;;;;;0.40;0.40;;;11.20;98.00;;;;;;10458067;28;20278;-81
2024/02/05 11:25:55;;;;;;;0.30;0.30;;;11.20;97.90;;;;;;10455889;28;20244;-81
2024/02/05 11:31:02;;;;;;;0.50;0.50;;;11.20;98.00;;;;;;10454943;28;20224;-81
2024/02/05 11:36:10;;;;;;;0.30;0.30;;;11.20;97.60;;;;;;10448599;28;20209;-81
2024/02/05 11:41:13;;;;;;;0.40;0.40;;;11.20;97.90;;;;;;10462249;28;20283;-81
2024/02/05 11:46:17;;;;;;;0.50;0.50;;;11.30;98.00;;;;;;10478245;28;20216;-81
2024/02/05 11:51:19;;;;;;;0.50;0.50;;;11.30;97.90;;;;;;10467115;28;20213;-81
2024/02/05 11:56:22;;;;;;;0.50;0.50;;;11.40;97.60;;;;;;10466774;28;20201;-82
2024/02/05 12:01:26;;;;;;;0.40;0.40;;;11.40;97.90;;;;;;10471992;28;20228;-80
2024/02/05 12:06:28;;;;;;;0.40;0.40;;;11.40;97.90;;;;;;10468614;28;20358;-81
2024/02/05 12:11:31;;;;;;;0.30;0.30;;;11.40;97.80;;;;;;10439179;28;20244;-81
2024/02/05 12:16:35;;;;;;;0.40;0.40;;;11.40;97.80;;;;;;10437684;28;20221;-81
2024/02/05 12:21:37;;;;;;;0.30;0.30;;;11.50;97.30;;;;;;10438132;28;20244;-81
2024/02/05 12:26:40;;;;;;;0.40;0.40;;;11.50;97.20;;;;;;10439922;28;20221;-81
2024/02/05 12:31:43;;;;;;;0.50;0.50;;;11.60;97.20;;;;;;10439435;28;20225;-81
2024/02/05 12:36:47;;;;;;;0.40;0.40;;;11.60;97.40;;;;;;10437241;28;20626;-81
2024/02/05 12:41:49;;;;;;;0.40;0.40;;;11.60;97.30;;;;;;10472669;28;20264;-81
2024/02/05 12:46:53;;;;;;;0.30;0.30;;;11.60;97.10;;;;;;10471098;28;20285;-81
2024/02/05 12:51:55;;;;;;;0.30;0.30;;;11.60;97.40;;;;;;10465242;28;20220;-81
2024/02/05 12:56:58;;;;;;;0.23;0.23;;;11.60;97.50;;;;;;10435232;28;20194;-81
2024/02/05 13:02:03;;;;;;;0.40;0.40;;;11.60;97.70;;;;;;10430652;28;20267;-81
2024/02/05 13:07:08;;;;;;;0.30;0.30;;;11.60;97.10;;;;;;10434492;28;20691;-81
2024/02/05 13:12:12;;;;;;;0.10;0.10;;;11.70;97.40;;;;;;10425705;28;20280;-81
2024/02/05 13:17:16;;;;;;;0.40;0.40;;;11.70;97.40;;;;;;10425453;28;20248;-81
2024/02/05 13:22:18;;;;;;;0.30;0.30;;;11.70;97.00;;;;;;10423248;28;20222;-81
2024/02/05 13:27:20;;;;;;;0.30;0.30;;;11.80;97.20;;;;;;10424254;28;20210;-81
2024/02/05 13:32:24;;;;;;;0.30;0.30;;;11.80;97.20;;;;;;10483335;28;20225;-81
2024/02/05 13:37:26;;;;;;;0.20;0.20;;;11.90;96.80;;;;;;10505443;28;20192;-81
2024/02/05 13:42:36;;;;;;;0.40;0.40;;;11.90;97.00;;;;;;10506724;28;20258;-81
2024/02/05 13:47:41;;;;;;;0.30;0.30;;;11.90;97.50;;;;;;10503517;28;20221;-81
2024/02/05 13:52:44;;;;;;;0.20;0.20;;;11.90;97.20;;;;;;10502578;28;20205;-81
2024/02/05 13:57:46;;;;;;;0.30;0.30;;;11.90;97.20;;;;;;10502262;28;20537;-81
2024/02/05 14:02:50;;;;;;;0.20;0.20;;;12.00;96.90;;;;;;10498177;28;20611;-81
2024/02/05 14:07:52;;;;;;;0.30;0.30;;;12.10;96.60;;;;;;10493568;28;20216;-81
2024/02/05 14:12:55;;;;;;;0.30;0.30;;;12.10;96.70;;;;;;10492189;28;20242;-81
2024/02/05 14:17:58;;;;;;;0.20;0.20;;;12.10;96.70;;;;;;10489866;28;20231;-81
2024/02/05 14:23:01;;;;;;;0.20;0.20;;;12.10;97.00;;;;;;10490572;28;20196;-81
2024/02/05 14:28:03;;;;;;;0.10;0.10;;;12.00;97.10;;;;;;10488150;28;20632;-81
2024/02/05 14:33:07;;;;;;;0.20;0.20;;;12.00;97.00;;;;;;10488612;28;20201;-81
2024/02/05 14:38:10;;;;;;;0.40;0.40;;;12.00;97.20;;;;;;10491035;28;20219;-80
2024/02/05 14:43:12;;;;;;;0.40;0.40;;;12.00;97.20;;;;;;10430258;28;20201;-80
2024/02/05 14:48:16;;;;;;;0.10;0.10;;;12.00;97.60;;;;;;10470687;28;20221;-80
2024/02/05 14:53:18;;;;;;;0.40;0.40;;;12.00;97.90;;;;;;10484861;28;20204;-79
2024/02/05 14:58:21;;;;;;;0.40;0.40;;;12.00;98.20;;;;;;10484815;28;20259;-81
2024/02/05 15:03:25;;;;;;;0.40;0.40;;;12.00;98.20;;;;;;10482904;28;20193;-82
2024/02/05 15:08:27;;;;;;;0.40;0.40;;;12.00;98.10;;;;;;10482470;28;20293;-82
2024/02/05 15:13:30;;;;;;;0.40;0.40;;;11.90;98.30;;;;;;10486023;28;20193;-80
2024/02/05 15:18:33;;;;;;;0.40;0.40;;;11.90;98.20;;;;;;10489297;28;20224;-81
2024/02/05 15:23:36;;;;;;;0.40;0.40;;;11.80;98.40;;;;;;10487753;28;20204;-80
2024/02/05 15:28:38;;;;;;;0.40;0.40;;;11.80;98.90;;;;;;10486570;28;20221;-82
2024/02/05 15:33:43;;;;;;;0.40;0.40;;;11.70;98.60;;;;;;10485245;28;20207;-81
2024/02/05 15:38:45;;;;;;;0.40;0.40;;;11.70;98.60;;;;;;10485185;28;20269;-81
2024/02/05 15:43:47;;;;;;;0.40;0.40;;;11.60;99.10;;;;;;10437135;28;20634;-81
2024/02/05 15:48:51;;;;;;;0.40;0.40;;;11.60;98.80;;;;;;10486068;28;20263;-81
2024/02/05 15:53:53;;;;;;;0.40;0.40;;;11.50;99.00;;;;;;10484106;28;20192;-81
2024/02/05 15:58:56;;;;;;;0.40;0.40;;;11.50;99.00;;;;;;10483973;28;20217;-81
2024/02/05 16:04:00;;;;;;;0.30;0.30;;;11.40;99.00;;;;;;10483687;28;20246;-81
2024/02/05 16:09:02;;;;;;;0.40;0.40;;;11.30;99.00;;;;;;10479513;28;20765;-81
2024/02/05 16:14:10;;;;;;;0.30;0.30;;;11.30;99.10;;;;;;10453626;28;20737;-80
2024/02/05 16:19:13;;;;;;;0.40;0.40;;;11.10;99.10;;;;;;10448956;28;20217;-81
2024/02/05 16:24:16;;;;;;;0.30;0.30;;;11.00;99.30;;;;;;10455132;28;20201;-80
2024/02/05 16:29:18;;;;;;;0.20;0.20;;;10.90;99.40;;;;;;10462126;28;20224;-81
2024/02/05 16:34:22;;;;;;;0.40;0.40;;;10.70;99.50;;;;;;10478384;28;20200;-80
2024/02/05 16:39:25;;;;;;;0.20;0.20;;;10.60;99.70;;;;;;10465391;28;20637;-80
2024/02/05 16:44:27;;;;;;;0.40;0.40;;;10.40;99.80;;;;;;10469111;28;20254;-80
2024/02/05 16:49:33;;;;;;;0.50;0.50;;;10.30;99.80;;;;;;10456217;28;20213;-80
2024/02/05 16:54:35;;;;;;;0.40;0.40;;;10.10;99.90;;;;;;10465470;28;20682;-80
2024/02/05 16:59:38;;;;;;;0.40;0.40;;;10.00;99.90;;;;;;10456419;28;20302;-80
2024/02/05 17:04:41;;;;;;;0.40;0.40;;;9.90;99.90;;;;;;10462864;28;20216;-79
2024/02/05 17:09:44;;;;;;;0.40;0.40;;;9.90;99.90;;;;;;10465086;28;20298;-78
2024/02/05 17:14:47;;;;;;;0.50;0.50;;;9.80;99.90;;;;;;10463877;28;20201;-80
2024/02/05 17:19:50;;;;;;;0.30;0.30;;;9.70;99.90;;;;;;10471988;28;20274;-81
2024/02/05 17:24:53;;;;;;;0.40;0.40;;;9.60;99.90;;;;;;10464160;28;20194;-81
2024/02/05 17:29:56;;;;;;;0.30;0.30;;;9.50;99.90;;;;;;10473520;28;20732;-81
2024/02/05 17:35:01;;;;;;;0.40;0.40;;;9.40;99.90;;;;;;10454986;28;20679;-80
2024/02/05 17:40:04;;;;;;;0.40;0.40;;;9.30;99.90;;;;;;10471438;28;20271;-80
2024/02/05 17:45:08;;;;;;;0.30;0.30;;;9.20;99.90;;;;;;10468907;28;20805;-80
2024/02/05 17:50:13;;;;;;;0.40;0.40;;;9.10;99.90;;;;;;10478720;28;20266;-81
2024/02/05 17:55:15;;;;;;;0.50;0.50;;;9.10;99.90;;;;;;10460580;28;20204;-80
2024/02/05 18:00:18;;;;;;;0.30;0.30;;;9.00;99.90;;;;;;10445982;28;20228;-81
2024/02/05 18:05:22;;;;;;;0.40;0.40;;;8.90;99.90;;;;;;10457240;28;20764;-82
2024/02/05 18:10:24;;;;;;;0.50;0.50;;;8.80;99.90;;;;;;10454060;28;20228;-81
2024/02/05 18:15:27;;;;;;;0.43;0.43;;;8.80;99.90;;;;;;10479388;28;20200;-82
2024/02/05 18:20:31;;;;;;;0.40;0.40;;;8.70;99.90;;;;;;10457326;28;20209;-81
2024/02/05 18:25:33;;;;;;;0.50;0.50;;;8.70;99.90;;;;;;10450783;28;20189;-82
2024/02/05 18:30:37;;;;;;;0.17;0.17;;;8.60;99.90;;;;;;10463172;28;20733;-81
2024/02/05 18:35:43;;;;;;;0.53;0.53;;;8.60;99.90;;;;;;10453727;28;20200;-82
2024/02/05 18:40:48;;;;;;;0.50;0.50;;;8.50;99.90;;;;;;10464501;28;20221;-81
2024/02/05 18:45:50;;;;;;;0.50;0.50;;;8.40;99.90;;;;;;10455193;28;20200;-81
2024/02/05 18:50:57;;;;;;;0.50;0.50;;;8.40;99.90;;;;;;10489433;28;20224;-82
2024/02/05 18:56:00;;;;;;;0.40;0.40;;;8.40;99.90;;;;;;10476510;28;20593;-81
2024/02/05 19:01:03;;;;;;;0.00;0.00;;;8.30;99.90;;;;;;10451189;28;20297;-82
2024/02/05 19:06:10;;;;;;;0.30;0.30;;;8.20;99.90;;;;;;10454754;28;20196;-82
2024/02/05 19:11:12;;;;;;;0.33;0.33;;;8.20;99.90;;;;;;10461954;28;20233;-82
2024/02/05 19:16:15;;;;;;;0.40;0.40;;;8.20;99.90;;;;;;10478760;28;20220;-82
2024/02/05 19:21:19;;;;;;;0.40;0.40;;;8.10;99.90;;;;;;10492184;28;20272;-83
2024/02/05 19:26:21;;;;;;;0.40;0.40;;;8.00;99.90;;;;;;10492247;28;20316;-82
2024/02/05 19:31:24;;;;;;;0.50;0.50;;;8.00;99.90;;;;;;10472824;28;20248;-82
2024/02/05 19:36:28;;;;;;;0.40;0.40;;;8.00;99.90;;;;;;10440581;28;20264;-81
2024/02/05 19:41:30;;;;;;;0.40;0.40;;;7.90;99.90;;;;;;10448448;28;20270;-82
2024/02/05 19:46:33;;;;;;;0.50;0.50;;;7.80;99.90;;;;;;10444170;28;20268;-81
2024/02/05 19:51:37;;;;;;;0.40;0.40;;;7.70;99.90;;;;;;10452311;28;20236;-81
2024/02/05 19:56:44;;;;;;;0.50;0.50;;;7.70;99.90;;;;;;10446506;28;20193;-81
2024/02/05 20:01:47;;;;;;;0.30;0.30;;;7.70;99.90;;;;;;10467392;28;20779;-82
2024/02/05 20:06:50;;;;;;;0.40;0.40;;;7.60;99.90;;;;;;10466661;28;20202;-82
2024/02/05 20:11:53;;;;;;;0.40;0.40;;;7.60;99.90;;;;;;10464008;28;20228;-81
2024/02/05 20:16:56;;;;;;;0.43;0.43;;;7.60;99.90;;;;;;10444994;28;20239;-82
2024/02/05 20:21:59;;;;;;;0.40;0.40;;;7.50;99.90;;;;;;10457406;28;20217;-82
2024/02/05 20:27:02;;;;;;;0.50;0.50;;;7.50;99.90;;;;;;10453817;28;20578;-82
2024/02/05 20:32:05;;;;;;;0.40;0.40;;;7.40;99.90;;;;;;10445965;28;20221;-82
2024/02/05 20:37:09;;;;;;;0.40;0.40;;;7.40;99.90;;;;;;10448440;28;20205;-81
2024/02/05 20:42:13;;;;;;;0.50;0.50;;;7.40;99.90;;;;;;10453841;28;20213;-82
2024/02/05 20:47:16;;;;;;;0.50;0.50;;;7.40;99.90;;;;;;10455988;28;20231;-81
2024/02/05 20:52:19;;;;;;;0.50;0.50;;;7.40;99.90;;;;;;10460615;28;20213;-81
2024/02/05 20:57:22;;;;;;;0.50;0.50;;;7.30;99.90;;;;;;10458183;28;20205;-80
2024/02/05 21:02:24;;;;;;;0.60;0.60;;;7.30;99.90;;;;;;10458763;28;20761;-81
2024/02/05 21:07:28;;;;;;;0.60;0.60;;;7.30;99.90;;;;;;10435150;28;20235;-81
2024/02/05 21:12:30;;;;;;;0.60;0.60;;;7.30;99.90;;;;;;10452034;28;20202;-80
2024/02/05 21:17:33;;;;;;;0.60;0.60;;;7.30;99.90;;;;;;10459087;28;20208;-81
2024/02/05 21:22:37;;;;;;;0.50;0.50;;;7.40;99.90;;;;;;10458847;28;20726;-81
2024/02/05 21:27:39;;;;;;;0.60;0.60;;;7.50;99.90;;;;;;10441664;28;20213;-81
2024/02/05 21:32:41;;;;;;;0.30;0.30;;;7.60;99.90;;;;;;10462434;28;20201;-82
2024/02/05 21:37:45;;;;;;;0.37;0.37;;;7.60;99.90;;;;;;10461200;28;20205;-81
2024/02/05 21:42:47;;;;;;;0.40;0.40;;;7.60;99.90;;;;;;10456561;28;20210;-81
2024/02/05 21:47:50;;;;;;;0.40;0.40;;;7.50;99.90;;;;;;10442311;28;20286;-81
2024/02/05 21:52:54;;;;;;;0.30;0.30;;;7.50;99.90;;;;;;10460682;28;20274;-81
2024/02/05 21:57:56;;;;;;;0.40;0.40;;;7.40;99.90;;;;;;10450573;28;20230;-81
2024/02/05 22:02:58;;;;;;;0.30;0.30;;;7.30;99.90;;;;;;10466217;28;20189;-81
2024/02/05 22:08:03;;;;;;;0.30;0.30;;;7.20;99.90;;;;;;10428610;28;20221;-80
2024/02/05 22:13:05;;;;;;;0.40;0.40;;;7.10;99.90;;;;;;10458280;28;20200;-80
2024/02/05 22:18:10;;;;;;;0.50;0.50;;;7.10;99.90;;;;;;10439092;28;20242;-81
2024/02/05 22:23:14;;;;;;;0.47;0.47;;;7.00;99.90;;;;;;10430826;28;20669;-81
2024/02/05 22:28:16;;;;;;;0.40;0.40;;;6.90;99.90;;;;;;10457471;28;20227;-81
2024/02/05 22:33:19;;;;;;;0.40;0.40;;;6.80;99.90;;;;;;10436893;28;20621;-81
2024/02/05 22:38:22;;;;;;;0.40;0.40;;;6.70;99.90;;;;;;10424709;28;20760;-80
2024/02/05 22:43:25;;;;;;;0.50;0.50;;;6.70;99.90;;;;;;10457981;28;20638;-80
2024/02/05 22:48:28;;;;;;;0.60;0.60;;;6.60;99.90;;;;;;10428165;28;20208;-80
2024/02/05 22:53:32;;;;;;;0.40;0.40;;;6.50;99.90;;;;;;10458196;28;20197;-80
2024/02/05 22:58:35;;;;;;;0.60;0.60;;;6.50;99.90;;;;;;10489848;28;20224;-81
2024/02/05 23:03:37;;;;;;;0.40;0.40;;;6.40;99.90;;;;;;10492113;28;20192;-81
2024/02/05 23:08:41;;;;;;;0.43;0.43;;;6.30;99.90;;;;;;10493620;28;20228;-81
2024/02/05 23:13:43;;;;;;;0.40;0.40;;;6.30;99.90;;;;;;10487178;28;20197;-81
2024/02/05 23:18:46;;;;;;;0.50;0.50;;;6.20;99.90;;;;;;10484245;28;20563;-81
2024/02/05 23:23:49;;;;;;;0.70;0.70;;;6.20;99.90;;;;;;10483986;28;20255;-81
2024/02/05 23:28:52;;;;;;;0.53;0.53;;;6.10;99.90;;;;;;10476383;28;20225;-81
2024/02/05 23:33:54;;;;;;;0.40;0.40;;;6.10;99.90;;;;;;10428525;28;20202;-82
2024/02/05 23:38:58;;;;;;;0.50;0.50;;;6.10;99.90;;;;;;10497956;28;20705;-82
2024/02/05 23:44:00;;;;;;;0.50;0.50;;;6.00;99.90;;;;;;10487592;28;20210;-80
2024/02/05 23:49:03;;;;;;;0.50;0.50;;;6.00;99.90;;;;;;10485947;28;20292;-81
2024/02/05 23:54:07;;;;;;;0.50;0.50;;;6.00;99.90;;;;;;10484624;28;20198;-81
2024/02/05 23:59:09;;;;;;;0.70;0.70;;;5.90;99.90;;;;;;10483780;28;20229;-81
